Time;durP1;ratioP1;P1;durP2;ratioP2;P2;SDS_P1;SDS_P2;PMS_P1;PMS_P2;Temp;Humidity;BMP_temperature;BMP_pressure;BME280_temperature;BME280_humidity;BME280_pressure;Samples;Min_cycle;Max_cycle;Signal;HPM_P1;HPM_P2
2023/06/17 00:00:18;;;;;;;;;;;;;;;;;;4929048;28;19997;-59
2023/06/17 00:02:44;;;;;;;;;;;;;;;;;;4927481;28;20449;-60
2023/06/17 00:05:09;;;;;;;;;;;;;;;;;;4926119;28;19919;-60
2023/06/17 00:07:35;;;;;;;;;;;;;;;;;;4933655;28;20440;-60
2023/06/17 00:10:00;;;;;;;;;;;;;;;;;;4928059;28;20322;-59
2023/06/17 00:12:29;;;;;;;;;;;;;;;;;;4926201;28;20009;-59
2023/06/17 00:14:57;;;;;;;;;;;;;;;;;;4926767;28;19929;-59
2023/06/17 00:17:24;;;;;;;;;;;;;;;;;;4928231;28;20020;-59
2023/06/17 00:19:50;;;;;;;;;;;;;;;;;;4944679;28;20422;-59
2023/06/17 00:22:16;;;;;;;;;;;;;;;;;;4943650;28;19926;-60
2023/06/17 00:24:41;;;;;;;;;;;;;;;;;;4925647;28;19925;-59
2023/06/17 00:27:07;;;;;;;;;;;;;;;;;;4926367;28;19990;-59
2023/06/17 00:29:35;;;;;;;;;;;;;;;;;;4945102;28;19923;-60
2023/06/17 00:32:02;;;;;;;;;;;;;;;;;;4911296;28;19977;-60
2023/06/17 00:34:30;;;;;;;;;;;;;;;;;;4944197;28;20286;-60
2023/06/17 00:36:58;;;;;;;;;;;;;;;;;;4927300;28;19922;-60
2023/06/17 00:39:23;;;;;;;;;;;;;;;;;;4941106;28;20003;-60
2023/06/17 00:41:49;;;;;;;;;;;;;;;;;;4925905;28;19977;-60
2023/06/17 00:44:14;;;;;;;;;;;;;;;;;;4910972;28;19922;-61
2023/06/17 00:46:39;;;;;;;;;;;;;;;;;;4929112;28;20056;-60
2023/06/17 00:49:05;;;;;;;;;;;;;;;;;;4929653;28;20013;-60
2023/06/17 00:51:32;;;;;;;;;;;;;;;;;;4947944;28;19984;-60
2023/06/17 00:53:58;;;;;;;;;;;;;;;;;;4913783;28;20404;-60
2023/06/17 00:56:25;;;;;;;;;;;;;;;;;;4929810;28;19922;-60
2023/06/17 00:58:52;;;;;;;;;;;;;;;;;;4947259;28;20498;-60
2023/06/17 01:01:20;;;;;;;;;;;;;;;;;;4947763;28;20017;-60
2023/06/17 01:03:50;;;;;;;;;;;;;;;;;;4933026;28;19926;-59
2023/06/17 01:06:19;;;;;;;;;;;;;;;;;;4948400;28;19918;-60
2023/06/17 01:08:45;;;;;;;;;;;;;;;;;;4914811;28;19972;-59
2023/06/17 01:11:10;;;;;;;;;;;;;;;;;;4947780;28;19922;-59
2023/06/17 01:13:37;;;;;;;;;;;;;;;;;;4945063;28;20041;-59
2023/06/17 01:16:04;;;;;;;;;;;;;;;;;;4930006;28;19918;-59
2023/06/17 01:18:31;;;;;;;;;;;;;;;;;;4929870;28;20013;-58
2023/06/17 01:20:56;;;;;;;;;;;;;;;;;;4929949;28;20499;-59
2023/06/17 01:23:24;;;;;;;;;;;;;;;;;;4947417;28;19926;-59
2023/06/17 01:25:49;;;;;;;;;;;;;;;;;;4943934;28;20274;-59
2023/06/17 01:28:20;;;;;;;;;;;;;;;;;;4946083;28;19922;-60
2023/06/17 01:30:45;;;;;;;;;;;;;;;;;;4928650;28;20013;-59
2023/06/17 01:33:15;;;;;;;;;;;;;;;;;;4945090;28;20416;-59
2023/06/17 01:35:43;;;;;;;;;;;;;;;;;;4946166;28;20498;-59
2023/06/17 01:38:08;;;;;;;;;;;;;;;;;;4928361;28;20052;-59
2023/06/17 01:40:34;;;;;;;;;;;;;;;;;;4926099;28;20269;-59
2023/06/17 01:43:02;;;;;;;;;;;;;;;;;;4929371;28;20008;-59
2023/06/17 01:45:27;;;;;;;;;;;;;;;;;;4947324;28;19966;-60
2023/06/17 01:47:52;;;;;;;;;;;;;;;;;;4928849;28;20164;-60
2023/06/17 01:50:19;;;;;;;;;;;;;;;;;;4932497;28;19999;-60
2023/06/17 01:52:45;;;;;;;;;;;;;;;;;;4934449;28;20005;-60
2023/06/17 01:55:10;;;;;;;;;;;;;;;;;;4929083;28;19923;-60
2023/06/17 01:57:38;;;;;;;;;;;;;;;;;;4935167;28;19922;-60
2023/06/17 02:00:04;;;;;;;;;;;;;;;;;;4914552;28;19933;-59
2023/06/17 02:02:31;;;;;;;;;;;;;;;;;;4933236;28;19925;-60
2023/06/17 02:04:59;;;;;;;;;;;;;;;;;;4914522;28;19926;-60
2023/06/17 02:07:27;;;;;;;;;;;;;;;;;;4928463;28;20120;-60
2023/06/17 02:09:52;;;;;;;;;;;;;;;;;;4910577;28;19976;-60
2023/06/17 02:12:18;;;;;;;;;;;;;;;;;;4933278;28;19922;-60
2023/06/17 02:14:46;;;;;;;;;;;;;;;;;;4928497;28;20021;-59
2023/06/17 02:17:12;;;;;;;;;;;;;;;;;;4944266;28;19921;-60
2023/06/17 02:19:39;;;;;;;;;;;;;;;;;;4928059;28;19922;-59
2023/06/17 02:22:07;;;;;;;;;;;;;;;;;;4927168;28;20350;-60
2023/06/17 02:24:32;;;;;;;;;;;;;;;;;;4913109;28;19926;-59
2023/06/17 02:27:01;;;;;;;;;;;;;;;;;;4945983;28;20013;-60
2023/06/17 02:29:26;;;;;;;;;;;;;;;;;;4911180;28;20183;-60
2023/06/17 02:31:55;;;;;;;;;;;;;;;;;;4947602;28;19966;-60
2023/06/17 02:34:20;;;;;;;;;;;;;;;;;;4945300;28;19922;-59
2023/06/17 02:36:45;;;;;;;;;;;;;;;;;;4929362;28;19944;-60
2023/06/17 02:39:11;;;;;;;;;;;;;;;;;;4943618;28;19922;-60
2023/06/17 02:41:36;;;;;;;;;;;;;;;;;;4914556;28;20411;-60
2023/06/17 02:44:04;;;;;;;;;;;;;;;;;;4924619;28;20032;-61
2023/06/17 02:46:32;;;;;;;;;;;;;;;;;;4931385;28;21911;-60
2023/06/17 02:48:57;;;;;;;;;;;;;;;;;;4914438;28;20012;-60
2023/06/17 02:51:29;;;;;;;;;;;;;;;;;;4911895;28;20342;-60
2023/06/17 02:53:56;;;;;;;;;;;;;;;;;;4927914;28;19922;-59
2023/06/17 02:56:26;;;;;;;;;;;;;;;;;;4912048;28;20643;-60
2023/06/17 02:58:54;;;;;;;;;;;;;;;;;;4932364;28;20377;-59
2023/06/17 03:01:22;;;;;;;;;;;;;;;;;;4929430;28;19996;-60
2023/06/17 03:03:48;;;;;;;;;;;;;;;;;;4913252;28;19934;-60
2023/06/17 03:06:15;;;;;;;;;;;;;;;;;;4928197;28;19918;-60
2023/06/17 03:08:43;;;;;;;;;;;;;;;;;;4926865;28;19965;-61
2023/06/17 03:11:11;;;;;;;;;;;;;;;;;;4946092;28;20861;-59
2023/06/17 03:13:38;;;;;;;;;;;;;;;;;;4928951;28;20001;-60
2023/06/17 03:16:05;;;;;;;;;;;;;;;;;;4926575;28;20855;-60
2023/06/17 03:18:33;;;;;;;;;;;;;;;;;;4912179;28;19922;-61
2023/06/17 03:20:59;;;;;;;;;;;;;;;;;;4933012;28;20029;-60
2023/06/17 03:23:24;;;;;;;;;;;;;;;;;;4943583;28;19926;-61
2023/06/17 03:25:53;;;;;;;;;;;;;;;;;;4924807;28;19990;-60
2023/06/17 03:28:20;;;;;;;;;;;;;;;;;;4945545;28;19945;-60
2023/06/17 03:30:46;;;;;;;;;;;;;;;;;;4927022;28;19922;-60
2023/06/17 03:33:16;;;;;;;;;;;;;;;;;;4944455;28;20299;-60
2023/06/17 03:35:41;;;;;;;;;;;;;;;;;;4929526;28;19918;-60
2023/06/17 03:38:09;;;;;;;;;;;;;;;;;;4926377;28;19952;-60
2023/06/17 03:40:37;;;;;;;;;;;;;;;;;;4944564;28;20491;-60
2023/06/17 03:43:03;;;;;;;;;;;;;;;;;;4913496;28;19918;-60
2023/06/17 03:45:30;;;;;;;;;;;;;;;;;;4944928;28;19925;-60
2023/06/17 03:47:55;;;;;;;;;;;;;;;;;;4943845;28;19922;-60
2023/06/17 03:50:24;;;;;;;;;;;;;;;;;;4910986;28;19992;-60
2023/06/17 03:52:49;;;;;;;;;;;;;;;;;;4932797;28;20594;-58
2023/06/17 03:55:17;;;;;;;;;;;;;;;;;;4926058;28;19929;-60
2023/06/17 03:57:42;;;;;;;;;;;;;;;;;;4926705;28;20028;-60
2023/06/17 04:00:11;;;;;;;;;;;;;;;;;;4910595;28;20382;-60
2023/06/17 04:02:39;;;;;;;;;;;;;;;;;;4944211;28;20024;-60
2023/06/17 04:05:06;;;;;;;;;;;;;;;;;;4926881;28;19941;-58
2023/06/17 04:07:34;;;;;;;;;;;;;;;;;;4925400;28;20103;-60
2023/06/17 04:10:03;;;;;;;;;;;;;;;;;;4925163;28;20053;-60
2023/06/17 04:12:28;;;;;;;;;;;;;;;;;;4941251;28;20373;-60
2023/06/17 04:14:54;;;;;;;;;;;;;;;;;;4929256;28;20017;-60
2023/06/17 04:17:20;;;;;;;;;;;;;;;;;;4914208;28;19925;-60
2023/06/17 04:19:47;;;;;;;;;;;;;;;;;;4944223;28;19918;-60
2023/06/17 04:22:15;;;;;;;;;;;;;;;;;;4926311;28;19926;-60
2023/06/17 04:24:43;;;;;;;;;;;;;;;;;;4928155;28;20031;-60
2023/06/17 04:27:10;;;;;;;;;;;;;;;;;;4927737;28;20382;-60
2023/06/17 04:29:40;;;;;;;;;;;;;;;;;;4942146;28;20597;-61
2023/06/17 04:32:10;;;;;;;;;;;;;;;;;;4944117;28;20012;-61
2023/06/17 04:34:38;;;;;;;;;;;;;;;;;;4943098;28;20003;-61
2023/06/17 04:37:03;;;;;;;;;;;;;;;;;;4943117;28;20056;-60
2023/06/17 04:39:34;;;;;;;;;;;;;;;;;;4942462;28;20008;-59
2023/06/17 04:42:00;;;;;;;;;;;;;;;;;;4909641;28;19918;-60
2023/06/17 04:44:26;;;;;;;;;;;;;;;;;;4925735;28;19921;-59
2023/06/17 04:46:52;;;;;;;;;;;;;;;;;;4942671;28;19922;-59
2023/06/17 04:49:19;;;;;;;;;;;;;;;;;;4924223;28;20379;-61
2023/06/17 04:51:48;;;;;;;;;;;;;;;;;;4911490;28;19926;-60
2023/06/17 04:54:13;;;;;;;;;;;;;;;;;;4911315;28;19922;-60
2023/06/17 04:56:39;;;;;;;;;;;;;;;;;;4943993;28;20325;-59
2023/06/17 04:59:06;;;;;;;;;;;;;;;;;;4925645;28;20674;-61
2023/06/17 05:01:34;;;;;;;;;;;;;;;;;;4938361;28;19972;-61
2023/06/17 05:04:00;;;;;;;;;;;;;;;;;;4921632;28;19926;-61
2023/06/17 05:06:28;;;;;;;;;;;;;;;;;;4938859;28;20107;-60
2023/06/17 05:08:53;;;;;;;;;;;;;;;;;;4941507;28;19922;-60
2023/06/17 05:11:18;;;;;;;;;;;;;;;;;;4925767;28;19918;-60
2023/06/17 05:13:43;;;;;;;;;;;;;;;;;;4926918;28;20025;-59
2023/06/17 05:16:09;;;;;;;;;;;;;;;;;;4925050;28;20009;-60
2023/06/17 05:18:36;;;;;;;;;;;;;;;;;;4931989;28;19980;-59
2023/06/17 05:21:04;;;;;;;;;;;;;;;;;;4924103;28;20012;-59
2023/06/17 05:23:32;;;;;;;;;;;;;;;;;;4940826;28;19926;-60
2023/06/17 05:26:00;;;;;;;;;;;;;;;;;;4943439;28;19977;-60
2023/06/17 05:28:25;;;;;;;;;;;;;;;;;;4907174;28;19918;-60
2023/06/17 05:30:53;;;;;;;;;;;;;;;;;;4943593;28;20508;-60
2023/06/17 05:33:22;;;;;;;;;;;;;;;;;;4930483;28;19917;-60
2023/06/17 05:35:50;;;;;;;;;;;;;;;;;;4948082;28;19922;-60
2023/06/17 05:38:15;;;;;;;;;;;;;;;;;;4946919;28;19966;-59
2023/06/17 05:40:40;;;;;;;;;;;;;;;;;;4941662;28;19969;-60
2023/06/17 05:43:06;;;;;;;;;;;;;;;;;;4946893;28;20189;-59
2023/06/17 05:45:31;;;;;;;;;;;;;;;;;;4913349;28;20194;-60
2023/06/17 05:47:59;;;;;;;;;;;;;;;;;;4927291;28;19918;-60
2023/06/17 05:50:27;;;;;;;;;;;;;;;;;;4945789;28;19926;-60
2023/06/17 05:52:55;;;;;;;;;;;;;;;;;;4929557;28;19925;-60
2023/06/17 05:55:23;;;;;;;;;;;;;;;;;;4942266;28;20013;-60
2023/06/17 05:57:48;;;;;;;;;;;;;;;;;;4925765;28;19922;-60
2023/06/17 06:00:14;;;;;;;;;;;;;;;;;;4943502;28;19977;-60
2023/06/17 06:02:39;;;;;;;;;;;;;;;;;;4944524;28;20370;-60
2023/06/17 06:05:07;;;;;;;;;;;;;;;;;;4914067;28;20022;-61
2023/06/17 06:07:36;;;;;;;;;;;;;;;;;;4946125;28;21935;-61
2023/06/17 06:10:03;;;;;;;;;;;;;;;;;;4925827;28;20021;-61
2023/06/17 06:12:29;;;;;;;;;;;;;;;;;;4929276;28;20009;-60
2023/06/17 06:14:55;;;;;;;;;;;;;;;;;;4948543;28;20019;-59
2023/06/17 06:17:20;;;;;;;;;;;;;;;;;;4915615;28;19919;-59
2023/06/17 06:19:45;;;;;;;;;;;;;;;;;;4930611;28;19933;-60
2023/06/17 06:22:10;;;;;;;;;;;;;;;;;;4913783;28;19977;-60
2023/06/17 06:24:36;;;;;;;;;;;;;;;;;;4927383;28;20009;-58
2023/06/17 06:27:01;;;;;;;;;;;;;;;;;;4928216;28;19977;-58
2023/06/17 06:29:26;;;;;;;;;;;;;;;;;;4927435;28;20088;-59
2023/06/17 06:31:51;;;;;;;;;;;;;;;;;;4945557;28;20294;-59
2023/06/17 06:34:17;;;;;;;;;;;;;;;;;;4945635;28;19968;-60
2023/06/17 06:36:42;;;;;;;;;;;;;;;;;;4928271;28;19956;-60
2023/06/17 06:39:10;;;;;;;;;;;;;;;;;;4925516;28;20032;-59
2023/06/17 06:41:35;;;;;;;;;;;;;;;;;;4933178;28;20012;-59
2023/06/17 06:44:00;;;;;;;;;;;;;;;;;;4928611;28;20214;-62
2023/06/17 06:46:28;;;;;;;;;;;;;;;;;;4927177;28;20045;-59
2023/06/17 06:48:56;;;;;;;;;;;;;;;;;;4928556;28;20884;-60
2023/06/17 06:51:26;;;;;;;;;;;;;;;;;;4927085;28;20147;-59
2023/06/17 06:53:52;;;;;;;;;;;;;;;;;;4945443;28;19918;-59
2023/06/17 06:56:17;;;;;;;;;;;;;;;;;;4926212;28;20416;-60
2023/06/17 06:58:46;;;;;;;;;;;;;;;;;;4928572;28;19925;-58
2023/06/17 07:01:14;;;;;;;;;;;;;;;;;;4928076;28;19926;-59
2023/06/17 07:03:42;;;;;;;;;;;;;;;;;;4945316;28;19934;-59
2023/06/17 07:06:10;;;;;;;;;;;;;;;;;;4928314;28;19919;-59
2023/06/17 07:08:35;;;;;;;;;;;;;;;;;;4941527;28;19918;-60
2023/06/17 07:11:05;;;;;;;;;;;;;;;;;;4945962;28;20077;-60
2023/06/17 07:13:30;;;;;;;;;;;;;;;;;;4926406;28;19958;-60
2023/06/17 07:15:56;;;;;;;;;;;;;;;;;;4945140;28;20033;-60
2023/06/17 07:18:24;;;;;;;;;;;;;;;;;;4927659;28;20468;-58
2023/06/17 07:20:52;;;;;;;;;;;;;;;;;;4930449;28;19965;-59
2023/06/17 07:23:22;;;;;;;;;;;;;;;;;;4931777;28;19918;-59
2023/06/17 07:25:48;;;;;;;;;;;;;;;;;;4942433;28;19918;-59
2023/06/17 07:28:13;;;;;;;;;;;;;;;;;;4913036;28;19918;-59
2023/06/17 07:30:38;;;;;;;;;;;;;;;;;;4944534;28;20441;-59
2023/06/17 07:33:05;;;;;;;;;;;;;;;;;;4945673;28;20418;-59
2023/06/17 07:35:30;;;;;;;;;;;;;;;;;;4944809;28;19918;-60
2023/06/17 07:37:56;;;;;;;;;;;;;;;;;;4928429;28;19926;-59
2023/06/17 07:40:21;;;;;;;;;;;;;;;;;;4943634;28;19978;-61
2023/06/17 07:42:46;;;;;;;;;;;;;;;;;;4925828;28;20042;-60
2023/06/17 07:45:15;;;;;;;;;;;;;;;;;;4925744;28;19933;-60
2023/06/17 07:47:42;;;;;;;;;;;;;;;;;;4911070;28;19919;-59
2023/06/17 07:50:11;;;;;;;;;;;;;;;;;;4943418;28;19937;-59
2023/06/17 07:52:36;;;;;;;;;;;;;;;;;;4928814;28;19918;-59
2023/06/17 07:55:03;;;;;;;;;;;;;;;;;;4926513;28;19926;-59
2023/06/17 07:57:32;;;;;;;;;;;;;;;;;;4915881;28;19964;-59
2023/06/17 08:00:00;;;;;;;;;;;;;;;;;;4927229;28;19922;-60
2023/06/17 08:02:28;;;;;;;;;;;;;;;;;;4944858;28;19918;-60
2023/06/17 08:04:56;;;;;;;;;;;;;;;;;;4944086;28;19923;-59
2023/06/17 08:07:22;;;;;;;;;;;;;;;;;;4944214;28;19973;-60
2023/06/17 08:09:47;;;;;;;;;;;;;;;;;;4928890;28;19922;-59
2023/06/17 08:12:12;;;;;;;;;;;;;;;;;;4908508;28;19918;-60
2023/06/17 08:14:42;;;;;;;;;;;;;;;;;;4944479;28;20038;-60
2023/06/17 08:17:10;;;;;;;;;;;;;;;;;;4944971;28;19918;-59
2023/06/17 08:19:38;;;;;;;;;;;;;;;;;;4924718;28;19918;-59
2023/06/17 08:22:03;;;;;;;;;;;;;;;;;;4944257;28;19918;-59
2023/06/17 08:24:34;;;;;;;;;;;;;;;;;;4942984;28;19932;-59
2023/06/17 08:26:59;;;;;;;;;;;;;;;;;;4926525;28;20820;-60
2023/06/17 08:29:25;;;;;;;;;;;;;;;;;;4943855;28;20497;-60
2023/06/17 08:31:53;;;;;;;;;;;;;;;;;;4943566;28;19918;-59
2023/06/17 08:34:19;;;;;;;;;;;;;;;;;;4927517;28;19930;-60
2023/06/17 08:36:45;;;;;;;;;;;;;;;;;;4943412;28;20494;-58
2023/06/17 08:39:10;;;;;;;;;;;;;;;;;;4909329;28;19980;-60
2023/06/17 08:41:36;;;;;;;;;;;;;;;;;;4941542;28;19941;-60
2023/06/17 08:44:04;;;;;;;;;;;;;;;;;;4910929;28;20444;-61
2023/06/17 08:46:29;;;;;;;;;;;;;;;;;;4944494;28;20064;-60
2023/06/17 08:48:55;;;;;;;;;;;;;;;;;;4925723;28;20341;-60
2023/06/17 08:51:23;;;;;;;;;;;;;;;;;;4923130;28;19923;-60
2023/06/17 08:53:50;;;;;;;;;;;;;;;;;;4924415;28;19937;-60
2023/06/17 08:56:16;;;;;;;;;;;;;;;;;;4925459;28;19929;-60
2023/06/17 08:58:41;;;;;;;;;;;;;;;;;;4924191;28;19922;-59
2023/06/17 09:01:06;;;;;;;;;;;;;;;;;;4925941;28;20770;-60
2023/06/17 09:03:37;;;;;;;;;;;;;;;;;;4922621;28;20069;-61
2023/06/17 09:06:05;;;;;;;;;;;;;;;;;;4924185;28;20374;-59
2023/06/17 09:08:33;;;;;;;;;;;;;;;;;;4942232;28;20050;-61
2023/06/17 09:10:59;;;;;;;;;;;;;;;;;;4927662;28;20082;-61
2023/06/17 09:13:26;;;;;;;;;;;;;;;;;;4913021;29;19922;-60
2023/06/17 09:15:52;;;;;;;;;;;;;;;;;;4927081;28;19930;-60
2023/06/17 09:18:17;;;;;;;;;;;;;;;;;;4927440;28;19958;-60
2023/06/17 09:20:42;;;;;;;;;;;;;;;;;;4929863;28;19919;-60
2023/06/17 09:23:07;;;;;;;;;;;;;;;;;;4927185;28;19922;-60
2023/06/17 09:25:36;;;;;;;;;;;;;;;;;;4928141;28;19997;-61
2023/06/17 09:28:01;;;;;;;;;;;;;;;;;;4926813;28;20005;-60
2023/06/17 09:30:27;;;;;;;;;;;;;;;;;;4925804;28;20020;-61
2023/06/17 09:32:55;;;;;;;;;;;;;;;;;;4927999;28;20013;-61
2023/06/17 09:35:23;;;;;;;;;;;;;;;;;;4925939;28;19936;-61
2023/06/17 09:37:51;;;;;;;;;;;;;;;;;;4909088;28;20260;-62
2023/06/17 09:40:17;;;;;;;;;;;;;;;;;;4924197;28;19914;-61
2023/06/17 09:42:46;;;;;;;;;;;;;;;;;;4941176;28;19929;-61
2023/06/17 09:45:14;;;;;;;;;;;;;;;;;;4926372;28;19922;-60
2023/06/17 09:47:39;;;;;;;;;;;;;;;;;;4926293;28;19927;-61
2023/06/17 09:50:04;;;;;;;;;;;;;;;;;;4928693;28;19929;-61
2023/06/17 09:52:32;;;;;;;;;;;;;;;;;;4914160;28;19926;-60
2023/06/17 09:55:02;;;;;;;;;;;;;;;;;;4944869;28;19930;-62
2023/06/17 09:57:31;;;;;;;;;;;;;;;;;;4947665;28;19922;-59
2023/06/17 10:00:00;;;;;;;;;;;;;;;;;;4947392;28;19926;-60
2023/06/17 10:02:26;;;;;;;;;;;;;;;;;;4946012;28;19921;-60
2023/06/17 10:04:52;;;;;;;;;;;;;;;;;;4945755;28;19961;-60
2023/06/17 10:07:17;;;;;;;;;;;;;;;;;;4944927;28;20503;-60
2023/06/17 10:09:45;;;;;;;;;;;;;;;;;;4945762;28;21897;-60
2023/06/17 10:12:11;;;;;;;;;;;;;;;;;;4927944;28;19918;-61
2023/06/17 10:14:36;;;;;;;;;;;;;;;;;;4946792;28;19933;-60
2023/06/17 10:17:02;;;;;;;;;;;;;;;;;;4945621;28;20024;-60
2023/06/17 10:19:27;;;;;;;;;;;;;;;;;;4929971;28;22048;-60
2023/06/17 10:21:55;;;;;;;;;;;;;;;;;;4945542;28;19922;-59
2023/06/17 10:24:23;;;;;;;;;;;;;;;;;;4945100;28;20397;-60
2023/06/17 10:26:48;;;;;;;;;;;;;;;;;;4928064;28;19934;-61
2023/06/17 10:29:14;;;;;;;;;;;;;;;;;;4928323;28;19923;-60
2023/06/17 10:31:39;;;;;;;;;;;;;;;;;;4946950;28;19925;-60
2023/06/17 10:34:10;;;;;;;;;;;;;;;;;;4943982;28;20374;-61
2023/06/17 10:36:35;;;;;;;;;;;;;;;;;;4944385;28;19924;-60
2023/06/17 10:39:06;;;;;;;;;;;;;;;;;;4929907;28;20470;-60
2023/06/17 10:41:31;;;;;;;;;;;;;;;;;;4946031;28;19918;-60
2023/06/17 10:44:02;;;;;;;;;;;;;;;;;;4912887;28;20464;-60
2023/06/17 10:46:32;;;;;;;;;;;;;;;;;;4928139;28;19925;-60
2023/06/17 10:49:00;;;;;;;;;;;;;;;;;;4946075;28;19918;-60
2023/06/17 10:51:25;;;;;;;;;;;;;;;;;;4924576;28;19922;-59
2023/06/17 10:53:53;;;;;;;;;;;;;;;;;;4926494;28;20096;-60
2023/06/17 10:56:18;;;;;;;;;;;;;;;;;;4927506;28;20331;-60
2023/06/17 10:58:46;;;;;;;;;;;;;;;;;;4944212;28;19965;-60
2023/06/17 11:01:11;;;;;;;;;;;;;;;;;;4927703;28;20159;-59
2023/06/17 11:03:37;;;;;;;;;;;;;;;;;;4926908;28;19926;-61
2023/06/17 11:06:05;;;;;;;;;;;;;;;;;;4946076;28;19934;-60
2023/06/17 11:08:30;;;;;;;;;;;;;;;;;;4927673;28;19918;-61
2023/06/17 11:10:55;;;;;;;;;;;;;;;;;;4929329;28;19930;-61
2023/06/17 11:13:21;;;;;;;;;;;;;;;;;;4914190;28;19922;-59
2023/06/17 11:15:47;;;;;;;;;;;;;;;;;;4927711;28;19918;-61
2023/06/17 11:18:14;;;;;;;;;;;;;;;;;;4925982;28;20349;-61
2023/06/17 11:20:40;;;;;;;;;;;;;;;;;;4943558;28;20283;-61
2023/06/17 11:23:05;;;;;;;;;;;;;;;;;;4945727;28;20004;-61
2023/06/17 11:25:31;;;;;;;;;;;;;;;;;;4922813;28;20265;-60
2023/06/17 11:27:59;;;;;;;;;;;;;;;;;;4925287;28;20890;-59
2023/06/17 11:30:26;;;;;;;;;;;;;;;;;;4942393;28;19922;-60
2023/06/17 11:32:54;;;;;;;;;;;;;;;;;;4927811;28;19992;-60
2023/06/17 11:35:19;;;;;;;;;;;;;;;;;;4925207;28;20724;-60
2023/06/17 11:37:50;;;;;;;;;;;;;;;;;;4943737;28;20767;-59
2023/06/17 11:40:20;;;;;;;;;;;;;;;;;;4937991;28;20142;-60
2023/06/17 11:42:48;;;;;;;;;;;;;;;;;;4926631;28;20124;-60
2023/06/17 11:45:14;;;;;;;;;;;;;;;;;;4912302;28;19918;-62
2023/06/17 11:47:45;;;;;;;;;;;;;;;;;;4942391;28;19929;-61
2023/06/17 11:50:10;;;;;;;;;;;;;;;;;;4930650;28;21854;-61
2023/06/17 11:52:36;;;;;;;;;;;;;;;;;;4926566;28;19985;-60
2023/06/17 11:55:01;;;;;;;;;;;;;;;;;;4921125;28;19930;-61
2023/06/17 11:57:26;;;;;;;;;;;;;;;;;;4944991;28;19922;-60
2023/06/17 11:59:52;;;;;;;;;;;;;;;;;;4944939;28;20122;-60
2023/06/17 12:02:17;;;;;;;;;;;;;;;;;;4925589;28;20073;-60
2023/06/17 12:04:42;;;;;;;;;;;;;;;;;;4927447;28;19926;-60
2023/06/17 12:07:08;;;;;;;;;;;;;;;;;;4942936;28;20409;-61
2023/06/17 12:09:33;;;;;;;;;;;;;;;;;;4941374;28;20301;-60
2023/06/17 12:11:58;;;;;;;;;;;;;;;;;;4922746;28;20714;-61
2023/06/17 12:14:24;;;;;;;;;;;;;;;;;;4922537;28;19965;-62
2023/06/17 12:16:52;;;;;;;;;;;;;;;;;;4927791;28;19997;-62
2023/06/17 12:19:21;;;;;;;;;;;;;;;;;;4929032;28;20117;-62
2023/06/17 12:21:48;;;;;;;;;;;;;;;;;;4943994;28;20437;-62
2023/06/17 12:24:14;;;;;;;;;;;;;;;;;;4935043;28;19980;-62
2023/06/17 12:26:39;;;;;;;;;;;;;;;;;;4925781;28;19925;-62
2023/06/17 12:29:04;;;;;;;;;;;;;;;;;;4943336;28;21447;-61
2023/06/17 12:31:32;;;;;;;;;;;;;;;;;;4907545;28;19992;-61
2023/06/17 12:33:57;;;;;;;;;;;;;;;;;;4926623;28;20013;-63
2023/06/17 12:36:26;;;;;;;;;;;;;;;;;;4941226;28;20349;-63
2023/06/17 12:38:51;;;;;;;;;;;;;;;;;;4923163;28;19919;-61
2023/06/17 12:41:17;;;;;;;;;;;;;;;;;;4908128;28;20448;-63
2023/06/17 12:43:42;;;;;;;;;;;;;;;;;;4946841;28;20352;-62
2023/06/17 12:46:08;;;;;;;;;;;;;;;;;;4927188;28;19930;-63
2023/06/17 12:48:36;;;;;;;;;;;;;;;;;;4944582;28;20521;-61
2023/06/17 12:51:05;;;;;;;;;;;;;;;;;;4941960;28;19937;-62
2023/06/17 12:53:32;;;;;;;;;;;;;;;;;;4939068;28;19926;-63
2023/06/17 12:56:00;;;;;;;;;;;;;;;;;;4928550;28;19919;-62
2023/06/17 12:58:28;;;;;;;;;;;;;;;;;;4930707;28;19929;-61
2023/06/17 13:00:54;;;;;;;;;;;;;;;;;;4910985;28;20439;-63
2023/06/17 13:03:19;;;;;;;;;;;;;;;;;;4948094;28;20008;-62
2023/06/17 13:05:44;;;;;;;;;;;;;;;;;;4914207;28;19926;-62
2023/06/17 13:08:09;;;;;;;;;;;;;;;;;;4930580;28;20441;-63
2023/06/17 13:10:40;;;;;;;;;;;;;;;;;;4913898;28;19934;-62
2023/06/17 13:13:09;;;;;;;;;;;;;;;;;;4930234;28;19922;-61
2023/06/17 13:15:34;;;;;;;;;;;;;;;;;;4933896;28;19922;-61
2023/06/17 13:17:59;;;;;;;;;;;;;;;;;;4926119;28;20357;-60
2023/06/17 13:20:27;;;;;;;;;;;;;;;;;;4926083;28;19918;-61
2023/06/17 13:22:55;;;;;;;;;;;;;;;;;;4945442;28;19922;-62
2023/06/17 13:25:20;;;;;;;;;;;;;;;;;;4912557;28;19925;-62
2023/06/17 13:27:45;;;;;;;;;;;;;;;;;;4946334;28;19964;-63
2023/06/17 13:30:11;;;;;;;;;;;;;;;;;;4930894;28;19949;-63
2023/06/17 13:32:41;;;;;;;;;;;;;;;;;;4923436;28;20396;-63
2023/06/17 13:35:07;;;;;;;;;;;;;;;;;;4929501;28;19915;-63
2023/06/17 13:37:34;;;;;;;;;;;;;;;;;;4913045;28;19968;-63
2023/06/17 13:40:00;;;;;;;;;;;;;;;;;;4946944;28;19922;-62
2023/06/17 13:42:25;;;;;;;;;;;;;;;;;;4913811;28;19957;-63
2023/06/17 13:44:51;;;;;;;;;;;;;;;;;;4909511;28;19976;-62
2023/06/17 13:47:16;;;;;;;;;;;;;;;;;;4928340;28;19918;-62
2023/06/17 13:49:44;;;;;;;;;;;;;;;;;;4932423;28;19926;-62
2023/06/17 13:52:10;;;;;;;;;;;;;;;;;;4945827;28;20303;-63
2023/06/17 13:54:36;;;;;;;;;;;;;;;;;;4942846;28;19996;-63
2023/06/17 13:57:01;;;;;;;;;;;;;;;;;;4923842;28;19924;-62
2023/06/17 13:59:26;;;;;;;;;;;;;;;;;;4943502;28;19961;-62
2023/06/17 14:01:51;;;;;;;;;;;;;;;;;;4942608;28;19922;-62
2023/06/17 14:04:20;;;;;;;;;;;;;;;;;;4927113;28;19927;-62
2023/06/17 14:06:48;;;;;;;;;;;;;;;;;;4944207;28;19957;-63
2023/06/17 14:09:14;;;;;;;;;;;;;;;;;;4940897;28;19922;-62
2023/06/17 14:11:40;;;;;;;;;;;;;;;;;;4928673;28;19981;-63
2023/06/17 14:14:08;;;;;;;;;;;;;;;;;;4925354;28;19988;-63
2023/06/17 14:16:35;;;;;;;;;;;;;;;;;;4925312;28;19923;-64
2023/06/17 14:19:01;;;;;;;;;;;;;;;;;;4928065;28;19929;-62
2023/06/17 14:21:26;;;;;;;;;;;;;;;;;;4926165;28;19921;-62
2023/06/17 14:23:54;;;;;;;;;;;;;;;;;;4950543;28;22187;-63
2023/06/17 14:26:20;;;;;;;;;;;;;;;;;;4927173;28;20083;-62
2023/06/17 14:28:46;;;;;;;;;;;;;;;;;;4912638;28;20489;-61
2023/06/17 14:31:12;;;;;;;;;;;;;;;;;;4912948;28;20108;-63
2023/06/17 14:33:37;;;;;;;;;;;;;;;;;;4910728;28;19952;-63
2023/06/17 14:36:02;;;;;;;;;;;;;;;;;;4910403;28;19918;-63
2023/06/17 14:38:28;;;;;;;;;;;;;;;;;;4942164;28;20131;-63
2023/06/17 14:40:53;;;;;;;;;;;;;;;;;;4928806;28;19929;-63
2023/06/17 14:43:18;;;;;;;;;;;;;;;;;;4944264;28;20465;-63
2023/06/17 14:45:44;;;;;;;;;;;;;;;;;;4912786;28;20104;-63
2023/06/17 14:48:09;;;;;;;;;;;;;;;;;;4924303;28;20016;-63
2023/06/17 14:50:34;;;;;;;;;;;;;;;;;;4937635;28;20081;-61
2023/06/17 14:53:00;;;;;;;;;;;;;;;;;;4912325;29;19968;-64
2023/06/17 14:55:28;;;;;;;;;;;;;;;;;;4934976;28;19926;-63
2023/06/17 14:58:05;;;;;;;;;;;;;;;;;;4921926;28;20307;-64
2023/06/17 15:00:30;;;;;;;;;;;;;;;;;;4922823;28;19944;-63
2023/06/17 15:02:59;;;;;;;;;;;;;;;;;;4928940;28;20553;-63
2023/06/17 15:05:26;;;;;;;;;;;;;;;;;;4902329;28;19931;-62
2023/06/17 15:07:51;;;;;;;;;;;;;;;;;;4906833;28;20021;-61
2023/06/17 15:10:17;;;;;;;;;;;;;;;;;;4921158;28;19929;-61
2023/06/17 15:12:43;;;;;;;;;;;;;;;;;;4911406;29;19918;-62
2023/06/17 15:15:12;;;;;;;;;;;;;;;;;;4924470;28;19922;-63
2023/06/17 15:17:37;;;;;;;;;;;;;;;;;;4925365;28;19919;-64
2023/06/17 15:20:03;;;;;;;;;;;;;;;;;;4909409;28;19958;-63
2023/06/17 15:22:28;;;;;;;;;;;;;;;;;;4923117;28;19923;-63
2023/06/17 15:24:56;;;;;;;;;;;;;;;;;;4924840;28;20662;-62
2023/06/17 15:27:29;;;;;;;;;;;;;;;;;;5031332;27;19924;-63
2023/06/17 15:29:54;;;;;;;;;;;;;;;;;;5030604;28;19921;-62
2023/06/17 15:32:20;;;;;;;;;;;;;;;;;;5036349;28;19924;-63
2023/06/17 15:34:48;;;;;;;;;;;;;;;;;;5024713;28;20126;-62
2023/06/17 15:37:15;;;;;;;;;;;;;;;;;;5042007;28;20008;-62
2023/06/17 15:39:45;;;;;;;;;;;;;;;;;;5022960;28;21009;-61
2023/06/17 15:42:11;;;;;;;;;;;;;;;;;;5023216;28;20388;-64
2023/06/17 15:44:37;;;;;;;;;;;;;;;;;;5037690;28;21625;-63
2023/06/17 15:47:02;;;;;;;;;;;;;;;;;;5019712;28;19987;-63
2023/06/17 15:49:30;;;;;;;;;;;;;;;;;;5033476;28;19917;-62
2023/06/17 15:51:58;;;;;;;;;;;;;;;;;;5039490;28;20752;-63
2023/06/17 15:54:25;;;;;;;;;;;;;;;;;;5038292;28;20042;-63
2023/06/17 15:56:54;;;;;;;;;;;;;;;;;;5037455;28;19974;-62
2023/06/17 15:59:21;;;;;;;;;;;;;;;;;;5035871;28;19921;-62
2023/06/17 16:01:49;;;;;;;;;;;;;;;;;;5034774;28;20090;-63
2023/06/17 16:04:23;;;;;;;;;;;;;;;;;;5034109;28;20007;-63
2023/06/17 16:06:48;;;;;;;;;;;;;;;;;;5033062;28;20446;-62
2023/06/17 16:09:16;;;;;;;;;;;;;;;;;;5031748;28;19924;-62
2023/06/17 16:11:44;;;;;;;;;;;;;;;;;;5033664;28;19980;-62
2023/06/17 16:14:09;;;;;;;;;;;;;;;;;;5030611;28;20433;-63
2023/06/17 16:16:34;;;;;;;;;;;;;;;;;;5031881;28;20588;-63
2023/06/17 16:19:00;;;;;;;;;;;;;;;;;;5021679;28;20452;-63
2023/06/17 16:21:29;;;;;;;;;;;;;;;;;;5044732;28;19920;-63
2023/06/17 16:23:57;;;;;;;;;;;;;;;;;;5033950;28;19936;-63
2023/06/17 16:26:23;;;;;;;;;;;;;;;;;;5035455;28;20156;-62
2023/06/17 16:29:17;;;;;;;;;;;;;;;;;;5044721;28;20329;-63
2023/06/17 16:31:45;;;;;;;;;;;;;;;;;;5039504;28;19916;-62
2023/06/17 16:34:10;;;;;;;;;;;;;;;;;;5025054;28;19991;-62
2023/06/17 16:36:35;;;;;;;;;;;;;;;;;;5034668;28;19924;-63
2023/06/17 16:39:04;;;;;;;;;;;;;;;;;;5021387;28;19995;-62
2023/06/17 16:42:08;;;;;;;;;;;;;;;;;;5027167;28;20032;-63